Time;durP1;ratioP1;P1;durP2;ratioP2;P2;SDS_P1;SDS_P2;PMS_P1;PMS_P2;Temp;Humidity;BMP_temperature;BMP_pressure;BME280_temperature;BME280_humidity;BME280_pressure;Samples;Min_cycle;Max_cycle;Signal;HPM_P1;HPM_P2
2021/04/23 00:00:56;;;;;;;3.90;2.50;;;;;;;1.42;89.46;93158.80;1858016;76;21090;-75
2021/04/23 00:03:43;;;;;;;5.28;3.25;;;;;;;1.34;89.38;93169.13;1860351;76;21151;-76
2021/04/23 00:06:28;;;;;;;5.97;3.08;;;;;;;1.28;89.46;93183.09;1819531;76;21146;-75
2021/04/23 00:09:12;;;;;;;5.70;3.10;;;;;;;1.24;89.69;93177.64;1873024;76;21630;-76
2021/04/23 00:11:56;;;;;;;5.75;3.35;;;;;;;1.20;89.86;93174.09;1785126;79;21151;-76
2021/04/23 00:14:30;;;;;;;4.97;2.67;;;;;;;1.17;89.98;93172.89;1805897;79;21056;-76
2021/04/23 00:16:58;;;;;;;4.70;2.95;;;;;;;1.17;90.44;93169.45;1841892;77;21047;-75
2021/04/23 00:19:26;;;;;;;4.50;2.80;;;;;;;1.21;90.39;93169.75;1864313;76;21129;-75
2021/04/23 00:21:54;;;;;;;7.62;4.12;;;;;;;1.23;90.31;93169.39;1850204;76;21593;-75
2021/04/23 00:24:22;;;;;;;5.30;3.02;;;;;;;1.25;90.17;93179.78;1821715;76;21213;-76
2021/04/23 00:26:50;;;;;;;5.83;3.95;;;;;;;1.26;90.22;93178.66;1873672;76;21461;-76
2021/04/23 00:29:17;;;;;;;11.18;4.60;;;;;;;1.26;90.09;93176.75;1814887;76;21103;-75
2021/04/23 00:31:47;;;;;;;6.42;2.80;;;;;;;1.25;90.02;93180.56;1856452;76;21085;-76
2021/04/23 00:34:15;;;;;;;5.72;3.20;;;;;;;1.18;90.07;93174.45;1841929;76;21522;-75
2021/04/23 00:36:42;;;;;;;3.53;3.07;;;;;;;1.15;90.31;93177.03;1829145;76;21501;-75
2021/04/23 00:39:09;;;;;;;3.10;2.00;;;;;;;1.17;90.73;93177.48;1872920;75;21026;-75
2021/04/23 00:41:38;;;;;;;4.03;1.80;;;;;;;1.22;90.56;93173.20;1813245;79;21052;-76
2021/04/23 00:44:06;;;;;;;2.72;2.37;;;;;;;1.23;90.31;93176.66;1863869;76;21544;-76
2021/04/23 00:46:34;;;;;;;1.92;1.65;;;;;;;1.23;90.19;93178.00;1856937;76;21347;-75
2021/04/23 00:49:03;;;;;;;2.42;1.60;;;;;;;1.24;90.33;93174.97;1868771;76;21074;-75
2021/04/23 00:51:34;;;;;;;1.52;1.42;;;;;;;1.28;90.18;93173.19;1835518;78;21250;-76
2021/04/23 00:54:01;;;;;;;1.55;1.37;;;;;;;1.33;90.16;93169.47;1815165;78;21051;-75
2021/04/23 00:56:32;;;;;;;1.80;1.70;;;;;;;1.28;89.81;93165.15;1871650;76;21149;-76
2021/04/23 00:58:59;;;;;;;2.87;2.08;;;;;;;1.22;89.85;93165.17;1852396;76;21352;-76
2021/04/23 01:01:33;;;;;;;5.55;3.10;;;;;;;1.24;90.21;93171.52;1855587;76;21101;-75
2021/04/23 01:04:03;;;;;;;3.75;2.62;;;;;;;1.27;90.22;93164.91;1801892;79;21057;-76
2021/04/23 01:06:32;;;;;;;2.85;2.50;;;;;;;1.26;90.08;93166.61;1838535;75;21100;-76
2021/04/23 01:09:06;;;;;;;3.60;2.02;;;;;;;1.22;90.13;93157.13;1854612;77;21035;-75
2021/04/23 01:11:34;;;;;;;1.85;1.75;;;;;;;1.19;90.07;93158.59;1901995;75;22464;-76
2021/04/23 01:14:01;;;;;;;1.77;1.60;;;;;;;1.15;90.12;93163.07;1880000;75;21058;-76
2021/04/23 01:16:28;;;;;;;1.30;1.20;;;;;;;1.09;90.13;93169.01;1870383;76;21052;-76
2021/04/23 01:18:56;;;;;;;3.22;1.17;;;;;;;1.02;90.22;93161.58;1870419;76;21548;-76
2021/04/23 01:21:31;;;;;;;1.47;1.30;;;;;;;0.99;90.40;93167.61;1870415;76;21130;-76
2021/04/23 01:24:01;;;;;;;;;;;;;;;0.99;90.50;93170.29;1873322;76;21176;-76
2021/04/23 01:26:33;;;;;;;0.95;0.95;;;;;;;1.01;90.67;93171.27;1870414;76;20204;-75
2021/04/23 01:29:00;;;;;;;1.32;0.95;;;;;;;0.97;90.59;93169.84;1870111;76;21501;-76
2021/04/23 01:31:30;;;;;;;1.12;1.02;;;;;;;0.90;90.44;93169.10;1870378;76;21074;-77
2021/04/23 01:34:10;;;;;;;1.32;0.98;;;;;;;0.85;90.46;93164.53;1867262;76;21148;-76
2021/04/23 01:36:39;;;;;;;1.65;1.45;;;;;;;0.79;90.17;93165.34;1855399;77;21181;-76
2021/04/23 01:39:15;;;;;;;4.97;1.87;;;;;;;0.75;89.86;93171.13;1835744;77;21098;-75
2021/04/23 01:41:43;;;;;;;2.65;1.60;;;;;;;0.71;89.82;93163.56;1828878;78;21162;-76
2021/04/23 01:44:10;;;;;;;3.40;1.72;;;;;;;0.72;90.00;93171.27;1818937;78;21142;-76
2021/04/23 01:46:38;;;;;;;1.95;1.70;;;;;;;0.74;89.89;93170.92;1835207;77;21078;-76
2021/04/23 01:49:12;;;;;;;2.20;1.50;;;;;;;0.73;89.39;93173.38;1862380;75;21646;-76
2021/04/23 01:51:43;;;;;;;2.58;1.40;;;;;;;0.63;89.03;93173.84;1870306;76;21486;-76
2021/04/23 01:54:11;;;;;;;2.12;1.95;;;;;;;0.55;89.06;93180.89;1870429;76;21114;-76
2021/04/23 01:56:38;;;;;;;5.75;1.65;;;;;;;0.46;89.36;93169.55;1870498;75;21091;-76
2021/04/23 01:59:06;;;;;;;2.40;1.75;;;;;;;0.43;89.64;93166.20;1870460;76;21129;-76
2021/04/23 02:01:34;;;;;;;3.02;2.40;;;;;;;0.42;89.87;93163.31;1864757;76;21564;-76
2021/04/23 02:04:04;;;;;;;5.70;2.22;;;;;;;0.41;89.94;93167.86;1857712;77;21040;-76
2021/04/23 02:06:31;;;;;;;1.82;1.40;;;;;;;0.45;90.13;93176.80;1802526;78;21059;-75
2021/04/23 02:08:59;;;;;;;3.77;2.00;;;;;;;0.51;90.13;93169.30;1839407;77;21037;-77
2021/04/23 02:11:28;;;;;;;3.30;2.80;;;;;;;0.56;90.19;93175.75;1865232;76;21099;-76
2021/04/23 02:13:57;;;;;;;2.72;2.27;;;;;;;0.60;90.58;93178.00;1874489;75;22339;-76
2021/04/23 02:16:24;;;;;;;3.77;2.50;;;;;;;0.62;90.78;93187.02;1824248;76;21549;-76
2021/04/23 02:18:53;;;;;;;7.22;2.70;;;;;;;0.61;90.72;93184.90;1875245;76;21039;-76
2021/04/23 02:21:20;;;;;;;4.70;3.00;;;;;;;0.62;90.27;93185.67;1828357;78;21472;-78
2021/04/23 02:23:49;;;;;;;7.37;3.77;;;;;;;0.58;89.74;93189.58;1836660;76;21114;-78
2021/04/23 02:26:18;;;;;;;5.33;3.40;;;;;;;0.57;89.55;93190.70;1815337;78;22216;-75
2021/04/23 02:28:49;;;;;;;3.45;2.25;;;;;;;0.55;89.28;93184.90;1853849;75;21145;-75
2021/04/23 02:31:22;;;;;;;2.02;1.92;;;;;;;0.53;89.34;93185.01;1882589;75;21150;-75
2021/04/23 02:33:51;;;;;;;3.10;2.20;;;;;;;0.51;89.56;93184.02;1831746;78;21035;-79
2021/04/23 02:36:19;;;;;;;3.50;2.10;;;;;;;0.48;89.65;93176.09;1830203;77;20976;-77
2021/04/23 02:38:47;;;;;;;2.40;2.20;;;;;;;0.48;89.74;93176.66;1814669;77;21772;-77
2021/04/23 02:41:16;;;;;;;2.98;2.20;;;;;;;0.52;90.01;93183.45;1872140;75;21150;-74
2021/04/23 02:43:47;;;;;;;4.45;2.80;;;;;;;0.58;89.97;93188.25;1887132;75;21573;-75
2021/04/23 02:46:14;;;;;;;8.78;3.90;;;;;;;0.61;89.95;93186.80;1864791;77;21540;-77
2021/04/23 02:48:44;;;;;;;10.10;5.90;;;;;;;0.65;90.16;93190.36;1864767;77;21031;-76
2021/04/23 02:51:17;;;;;;;6.80;3.98;;;;;;;0.69;90.29;93189.90;1901547;75;21799;-80
2021/04/23 02:53:44;;;;;;;7.35;4.10;;;;;;;0.74;90.36;93192.33;1870807;75;21145;-75
2021/04/23 02:56:12;;;;;;;7.78;3.37;;;;;;;0.78;90.24;93187.08;1864825;75;21027;-75
2021/04/23 02:58:40;;;;;;;2.50;2.17;;;;;;;0.75;90.02;93188.53;1866237;77;21066;-74
2021/04/23 03:01:14;;;;;;;3.33;2.45;;;;;;;0.63;89.98;93177.30;1865801;77;21340;-75
2021/04/23 03:03:42;;;;;;;3.52;2.50;;;;;;;0.54;90.21;93179.34;1865175;77;22218;-79
2021/04/23 03:06:09;;;;;;;4.70;2.15;;;;;;;0.50;90.66;93185.14;1865770;77;21145;-76
2021/04/23 03:08:37;;;;;;;2.00;1.70;;;;;;;0.53;90.98;93188.48;1867566;77;21106;-78
2021/04/23 03:11:11;;;;;;;4.35;2.30;;;;;;;0.54;90.92;93186.02;1864852;75;21082;-75
2021/04/23 03:13:44;;;;;;;4.67;2.35;;;;;;;0.52;90.90;93176.20;1846284;76;21044;-75
2021/04/23 03:16:12;;;;;;;2.67;2.10;;;;;;;0.49;91.04;93182.25;1822849;75;22228;-76
2021/04/23 03:18:41;;;;;;;2.98;1.98;;;;;;;0.55;91.37;93185.46;1901900;75;21047;-75
2021/04/23 03:21:10;;;;;;;2.05;1.70;;;;;;;0.60;91.46;93195.92;1835977;75;21051;-75
2021/04/23 03:23:38;;;;;;;1.82;1.72;;;;;;;0.63;91.31;93200.61;1830121;78;21557;-75
2021/04/23 03:26:08;;;;;;;2.98;1.75;;;;;;;0.62;91.15;93203.07;1819513;77;21127;-76
2021/04/23 03:28:38;;;;;;;4.35;1.92;;;;;;;0.61;91.23;93194.83;1836146;75;21533;-75
2021/04/23 03:31:05;;;;;;;5.83;2.35;;;;;;;0.60;91.06;93195.39;1899341;75;21560;-76
2021/04/23 03:33:32;;;;;;;7.58;3.47;;;;;;;0.57;91.18;93196.06;1864854;77;21035;-76
2021/04/23 03:36:00;;;;;;;9.80;5.03;;;;;;;0.58;91.28;93202.19;1873009;75;21035;-74
2021/04/23 03:38:29;;;;;;;6.90;3.72;;;;;;;0.60;91.45;93202.61;1880757;75;21117;-76
2021/04/23 03:40:58;;;;;;;4.92;3.12;;;;;;;0.65;91.47;93208.53;1864931;77;22230;-76
2021/04/23 03:43:25;;;;;;;4.80;2.65;;;;;;;0.68;91.29;93207.08;1864792;77;21063;-76
2021/04/23 03:45:53;;;;;;;2.37;2.00;;;;;;;0.72;91.49;93211.98;1864878;77;21039;-75
2021/04/23 03:48:21;;;;;;;3.98;2.17;;;;;;;0.77;91.54;93206.38;1864780;77;21134;-75
2021/04/23 03:50:49;;;;;;;4.10;2.00;;;;;;;0.83;91.55;93202.36;1864784;75;21042;-75
2021/04/23 03:53:17;;;;;;;2.70;2.20;;;;;;;0.83;91.12;93207.72;1836324;76;22286;-76
2021/04/23 03:55:48;;;;;;;3.65;2.10;;;;;;;0.78;90.96;93208.49;1836463;75;21109;-76
2021/04/23 03:58:18;;;;;;;3.47;2.10;;;;;;;0.77;91.35;93207.72;1895833;75;21082;-76
2021/04/23 04:00:55;;;;;;;3.00;2.40;;;;;;;0.81;91.42;93209.16;1832417;78;21114;-76
2021/04/23 04:03:23;;;;;;;1.67;1.57;;;;;;;0.82;91.31;93213.39;1828586;78;21047;-75
2021/04/23 04:05:50;;;;;;;4.00;2.20;;;;;;;0.85;91.41;93208.14;1883551;75;22235;-74
2021/04/23 04:08:18;;;;;;;2.42;2.05;;;;;;;0.89;91.21;93214.94;1869534;75;21634;-76
2021/04/23 04:10:47;;;;;;;2.05;1.85;;;;;;;0.86;90.94;93213.70;1831849;78;21565;-76
2021/04/23 04:13:15;;;;;;;4.85;2.20;;;;;;;0.82;91.14;93216.06;1835013;78;21094;-76
2021/04/23 04:15:42;;;;;;;3.17;2.20;;;;;;;0.85;91.38;93214.83;1835111;78;21469;-76
2021/04/23 04:18:10;;;;;;;2.90;2.08;;;;;;;0.85;91.05;93216.17;1834801;78;21384;-77
2021/04/23 04:20:40;;;;;;;2.40;2.20;;;;;;;0.83;91.31;93221.09;1834734;78;21047;-76
2021/04/23 04:23:09;;;;;;;3.15;1.80;;;;;;;0.88;91.50;93230.78;1834576;78;21074;-76
2021/04/23 04:25:38;;;;;;;4.62;2.12;;;;;;;0.93;91.49;93227.86;1834762;78;21539;-78
2021/04/23 04:28:06;;;;;;;2.00;1.80;;;;;;;0.94;91.44;93225.40;1834921;78;21118;-77
2021/04/23 04:30:35;;;;;;;1.85;1.75;;;;;;;0.94;91.54;93231.56;1900267;75;22162;-76
2021/04/23 04:33:02;;;;;;;2.55;1.80;;;;;;;1.00;91.76;93234.77;1874205;75;21070;-76
2021/04/23 04:35:30;;;;;;;3.42;2.02;;;;;;;1.07;91.75;93234.97;1865327;75;21489;-76
2021/04/23 04:37:58;;;;;;;6.08;2.47;;;;;;;1.09;91.61;93238.10;1848682;77;21080;-77
2021/04/23 04:40:26;;;;;;;4.22;3.02;;;;;;;1.09;91.58;93238.63;1815453;75;21095;-77
2021/04/23 04:42:54;;;;;;;2.75;2.40;;;;;;;1.09;91.49;93241.31;1902214;75;22117;-76
2021/04/23 04:45:24;;;;;;;3.85;3.35;;;;;;;1.07;91.54;93244.34;1870199;75;21486;-75
2021/04/23 04:47:52;;;;;;;5.22;4.60;;;;;;;1.06;91.54;93245.47;1864810;77;21022;-76
2021/04/23 04:50:26;;;;;;;6.37;5.62;;;;;;;1.05;91.59;93244.45;1864795;77;21035;-76
2021/04/23 04:52:57;;;;;;;5.70;5.03;;;;;;;1.05;91.73;93246.56;1865096;77;21137;-76
2021/04/23 04:55:30;;;;;;;9.68;7.10;;;;;;;1.11;91.85;93246.56;1862544;77;21809;-76
2021/04/23 04:57:59;;;;;;;8.03;5.92;;;;;;;1.16;91.85;93244.19;1809577;79;21561;-76
2021/04/23 05:00:28;;;;;;;9.28;7.12;;;;;;;1.23;91.91;93244.96;1888734;75;21105;-76
2021/04/23 05:02:56;;;;;;;15.88;11.50;;;;;;;1.30;91.72;93242.48;1857099;75;21126;-77
2021/04/23 05:05:24;;;;;;;19.10;13.08;;;;;;;1.38;91.53;93248.25;1830912;78;21166;-76
2021/04/23 05:07:53;;;;;;;18.17;12.28;;;;;;;1.41;91.14;93247.58;1826856;77;21646;-74
2021/04/23 05:10:26;;;;;;;17.82;11.90;;;;;;;1.40;90.84;93244.12;1810351;79;21505;-78
2021/04/23 05:13:03;;;;;;;18.23;14.18;;;;;;;1.38;90.65;93245.57;1872250;76;21049;-75
2021/04/23 05:15:34;;;;;;;18.75;13.10;;;;;;;1.36;90.68;93244.59;1835279;76;21584;-78
2021/04/23 05:18:01;;;;;;;20.50;13.43;;;;;;;1.36;90.74;93242.47;1816652;78;21202;-78
2021/04/23 05:20:29;;;;;;;22.25;14.87;;;;;;;1.40;90.93;93236.64;1848010;75;21319;-78
2021/04/23 05:22:56;;;;;;;28.87;17.98;;;;;;;1.52;90.90;93233.91;1894705;75;21074;-78
2021/04/23 05:25:24;;;;;;;25.30;17.00;;;;;;;1.67;90.77;93235.06;1864766;77;21147;-78
2021/04/23 05:27:52;;;;;;;21.73;14.28;;;;;;;1.83;90.67;93240.45;1858595;76;21158;-78
2021/04/23 05:30:23;;;;;;;32.10;23.85;;;;;;;1.96;90.31;93243.28;1858397;76;21173;-78
2021/04/23 05:32:51;;;;;;;34.50;24.37;;;;;;;2.14;90.72;93258.46;1861178;76;21146;-78
2021/04/23 05:35:20;;;;;;;23.42;17.23;;;;;;;2.48;91.49;93257.55;1839267;77;21490;-77
2021/04/23 05:37:48;;;;;;;31.12;24.30;;;;;;;2.93;91.11;93262.41;1833408;77;21183;-78
2021/04/23 05:40:20;;;;;;;29.85;23.42;;;;;;;3.29;89.42;93263.19;1845832;77;21176;-78
2021/04/23 05:42:47;;;;;;;31.55;23.98;;;;;;;3.47;88.12;93268.36;1870750;76;21098;-78
2021/04/23 05:45:17;;;;;;;17.77;12.30;;;;;;;3.57;87.06;93262.43;1854651;76;21101;-78
2021/04/23 05:47:44;;;;;;;15.38;10.53;;;;;;;3.77;85.90;93261.84;1824122;77;21163;-78
2021/04/23 05:50:15;;;;;;;8.78;5.72;;;;;;;3.90;84.39;93263.23;1807141;79;21116;-78
2021/04/23 05:52:43;;;;;;;8.05;4.58;;;;;;;3.90;84.39;93263.23;1801608;76;21167;-78
2021/04/23 05:55:13;;;;;;;5.05;4.05;;;;;;;4.14;83.58;93262.70;1872180;76;21591;-78
2021/04/23 05:57:41;;;;;;;6.42;5.30;;;;;;;4.49;83.62;93259.05;1849007;76;21192;-78
2021/04/23 06:00:14;;;;;;;5.83;4.47;;;;;;;5.02;83.57;93250.42;1862390;76;21685;-78
2021/04/23 06:02:41;;;;;;;5.10;4.45;;;;;;;5.74;81.50;93260.20;1841421;77;21117;-78
2021/04/23 06:05:10;;;;;;;5.17;3.65;;;;;;;6.45;78.79;93252.09;1841189;75;21209;-77
2021/04/23 06:07:38;;;;;;;8.45;3.65;;;;;;;6.99;75.52;93256.55;1815118;78;21443;-76
2021/04/23 06:10:07;;;;;;;7.67;5.45;;;;;;;7.57;73.10;93253.03;1818242;77;21592;-75
2021/04/23 06:12:36;;;;;;;11.15;8.05;;;;;;;8.09;72.05;93252.27;1824529;77;21142;-74
2021/04/23 06:15:05;;;;;;;15.78;10.35;;;;;;;8.66;69.10;93255.67;1833821;77;21177;-75
2021/04/23 06:17:32;;;;;;;11.43;8.73;;;;;;;9.14;66.71;93257.41;1850584;77;21623;-75
2021/04/23 06:20:00;;;;;;;12.05;8.23;;;;;;;9.56;65.25;93253.65;1857070;77;21152;-75
2021/04/23 06:22:27;;;;;;;8.60;6.17;;;;;;;10.07;64.31;93255.00;1850912;77;21623;-76
2021/04/23 06:24:54;;;;;;;6.78;5.83;;;;;;;10.54;59.86;93259.05;1842781;77;21146;-77
2021/04/23 06:27:23;;;;;;;9.83;6.03;;;;;;;10.75;57.21;93255.39;1841359;77;21631;-77
2021/04/23 06:29:51;;;;;;;12.73;6.37;;;;;;;10.90;56.02;93256.83;1835931;77;21067;-77
2021/04/23 06:32:19;;;;;;;8.85;5.15;;;;;;;10.99;55.12;93253.67;1807213;76;21114;-76
2021/04/23 06:34:46;;;;;;;7.20;5.67;;;;;;;10.93;54.81;93250.59;1874599;75;22212;-76
2021/04/23 06:37:14;;;;;;;10.38;5.28;;;;;;;10.72;54.62;93255.41;1813310;76;21237;-76
2021/04/23 06:39:41;;;;;;;9.00;5.95;;;;;;;10.38;55.83;93256.02;1855402;76;21137;-75
2021/04/23 06:42:09;;;;;;;8.03;5.28;;;;;;;10.07;56.54;93256.35;1857235;76;21178;-76
2021/04/23 06:44:36;;;;;;;6.65;4.58;;;;;;;9.85;57.78;93259.15;1852180;76;21217;-76
2021/04/23 06:47:04;;;;;;;6.17;4.05;;;;;;;9.82;56.77;93268.11;1867684;76;21504;-75
2021/04/23 06:49:32;;;;;;;5.67;3.55;;;;;;;9.65;55.35;93266.98;1810487;79;21771;-80
2021/04/23 06:52:00;;;;;;;5.80;3.98;;;;;;;9.37;55.35;93271.14;1862343;76;21165;-77
2021/04/23 06:54:27;;;;;;;4.55;3.75;;;;;;;9.21;55.81;93264.74;1833703;76;21191;-77
2021/04/23 06:56:56;;;;;;;5.20;3.77;;;;;;;9.27;57.14;93258.36;1834617;76;21185;-76
2021/04/23 06:59:23;;;;;;;7.80;4.65;;;;;;;9.41;56.83;93265.12;1862900;76;21615;-78
2021/04/23 07:01:50;;;;;;;6.67;3.87;;;;;;;9.54;57.42;93261.39;1811683;79;21091;-79
2021/04/23 07:04:18;;;;;;;6.35;4.20;;;;;;;9.75;57.96;93261.34;1872355;75;21196;-77
2021/04/23 07:06:47;;;;;;;5.55;4.30;;;;;;;9.97;57.59;93260.09;1848706;75;21173;-77
2021/04/23 07:09:17;;;;;;;9.15;4.67;;;;;;;10.06;57.39;93265.68;1837173;77;21161;-77
2021/04/23 07:11:47;;;;;;;13.40;5.92;;;;;;;10.11;55.66;93261.19;1843539;77;21352;-77
2021/04/23 07:14:14;;;;;;;8.25;5.22;;;;;;;10.08;55.85;93264.13;1847362;77;21505;-77
2021/04/23 07:16:42;;;;;;;6.95;5.25;;;;;;;10.01;57.41;93267.45;1834673;77;21162;-77
2021/04/23 07:19:09;;;;;;;5.87;4.42;;;;;;;9.90;54.77;93266.91;1825835;77;21169;-77
2021/04/23 07:21:37;;;;;;;8.38;5.50;;;;;;;9.67;55.30;93273.39;1839237;76;21153;-77
2021/04/23 07:24:05;;;;;;;8.33;5.50;;;;;;;9.52;53.86;93265.09;1861037;76;21617;-78
2021/04/23 07:26:33;;;;;;;10.78;5.30;;;;;;;9.13;54.85;93279.48;1839456;77;21268;-77
2021/04/23 07:29:00;;;;;;;12.28;5.90;;;;;;;8.78;56.73;93274.85;1842071;77;21129;-77
2021/04/23 07:31:28;;;;;;;5.40;4.30;;;;;;;8.55;56.96;93269.22;1842571;75;21133;-77
2021/04/23 07:33:57;;;;;;;9.35;5.17;;;;;;;8.38;57.60;93268.59;1845289;75;21094;-79
2021/04/23 07:36:24;;;;;;;9.03;4.75;;;;;;;8.19;58.93;93269.69;1834485;77;21636;-76
2021/04/23 07:38:51;;;;;;;9.85;6.25;;;;;;;8.07;58.20;93270.05;1818475;78;21179;-77
2021/04/23 07:41:19;;;;;;;8.85;5.85;;;;;;;7.95;59.46;93267.11;1807440;79;21151;-76
2021/04/23 07:43:46;;;;;;;13.32;5.83;;;;;;;7.86;60.83;93273.44;1823614;78;21051;-77
2021/04/23 07:46:15;;;;;;;7.03;4.60;;;;;;;7.70;60.74;93267.00;1815172;78;21784;-76
2021/04/23 07:48:42;;;;;;;10.28;5.35;;;;;;;7.56;60.54;93281.26;1847232;76;22707;-76
2021/04/23 07:51:10;;;;;;;11.68;5.70;;;;;;;7.36;60.54;93279.97;1849352;76;21665;-77
2021/04/23 07:53:39;;;;;;;11.18;4.95;;;;;;;7.13;60.61;93284.27;1818824;76;21346;-76
2021/04/23 07:56:06;;;;;;;10.15;5.75;;;;;;;6.89;60.33;93278.31;1872291;76;21212;-77
2021/04/23 07:58:34;;;;;;;12.37;5.78;;;;;;;6.71;61.47;93285.50;1847342;76;21141;-77
2021/04/23 08:01:01;;;;;;;7.58;4.78;;;;;;;6.55;62.35;93283.83;1842756;75;21099;-77
2021/04/23 08:03:32;;;;;;;12.37;5.78;;;;;;;6.42;62.36;93283.11;1840356;75;21157;-77
2021/04/23 08:05:59;;;;;;;9.98;5.15;;;;;;;6.36;63.55;93288.09;1839116;77;21555;-77
2021/04/23 08:08:30;;;;;;;8.95;5.08;;;;;;;6.51;63.62;93284.38;1833563;77;21087;-77
2021/04/23 08:10:58;;;;;;;8.15;4.40;;;;;;;6.89;63.60;93287.00;1817308;78;21557;-76
2021/04/23 08:13:25;;;;;;;6.72;4.30;;;;;;;7.14;60.98;93291.99;1860935;76;22320;-78
2021/04/23 08:15:55;;;;;;;7.95;4.50;;;;;;;7.25;60.53;93291.48;1855219;76;21160;-78
2021/04/23 08:18:23;;;;;;;7.10;4.37;;;;;;;7.32;59.85;93298.11;1839594;77;21654;-77
2021/04/23 08:20:50;;;;;;;8.08;4.70;;;;;;;7.40;59.82;93293.70;1844444;77;21051;-78
2021/04/23 08:23:21;;;;;;;6.67;4.60;;;;;;;7.51;59.37;93294.55;1843870;77;21188;-78
2021/04/23 08:25:52;;;;;;;7.60;4.03;;;;;;;7.61;58.78;93298.48;1821202;78;21180;-78
2021/04/23 08:28:20;;;;;;;11.03;4.17;;;;;;;7.70;58.80;93298.12;1834249;78;21078;-78
2021/04/23 08:30:49;;;;;;;9.95;4.78;;;;;;;7.78;57.98;93295.64;1842937;77;21097;-78
2021/04/23 08:33:16;;;;;;;8.25;4.83;;;;;;;7.84;56.88;93292.02;1840021;77;21138;-79
2021/04/23 08:35:45;;;;;;;8.53;4.58;;;;;;;7.79;54.03;93291.80;1823933;78;21568;-78
2021/04/23 08:38:12;;;;;;;6.92;4.37;;;;;;;7.89;56.42;93294.34;1818211;78;21185;-78
2021/04/23 08:40:41;;;;;;;7.78;5.03;;;;;;;8.13;56.72;93295.61;1814626;77;21204;-78
2021/04/23 08:43:08;;;;;;;9.40;4.85;;;;;;;8.43;57.21;93299.39;1861194;76;21173;-82
2021/04/23 08:45:36;;;;;;;8.13;4.70;;;;;;;8.56;53.78;93292.44;1844287;76;21240;-78
2021/04/23 08:48:06;;;;;;;9.95;4.80;;;;;;;8.47;54.23;93300.17;1823912;76;21138;-80
2021/04/23 08:53:04;;;;;;;8.90;5.03;;;;;;;8.75;53.73;93302.14;1838083;78;21180;-78
2021/04/23 08:55:32;;;;;;;13.05;5.60;;;;;;;8.75;52.99;93298.84;1883043;74;21137;-79
2021/04/23 08:58:03;;;;;;;11.12;6.08;;;;;;;8.61;52.92;93300.77;1880068;75;21118;-79
2021/04/23 09:00:31;;;;;;;8.83;4.95;;;;;;;8.33;51.78;93302.81;1872422;76;21150;-76
2021/04/23 09:02:58;;;;;;;8.75;4.35;;;;;;;8.16;54.13;93301.59;1870040;76;22070;-78
2021/04/23 09:05:28;;;;;;;11.15;4.80;;;;;;;8.06;54.09;93295.58;1850420;77;22416;-78
2021/04/23 09:08:04;;;;;;;9.23;4.85;;;;;;;8.07;55.76;93299.83;1842748;77;21119;-77
2021/04/23 09:10:37;;;;;;;9.08;4.92;;;;;;;8.30;54.98;93291.39;1829296;76;21188;-79
2021/04/23 09:13:11;;;;;;;11.38;4.80;;;;;;;8.56;53.72;93298.44;1858571;76;21606;-78
2021/04/23 09:15:40;;;;;;;7.60;4.42;;;;;;;8.82;53.99;93292.66;1856279;76;22216;-77
2021/04/23 09:18:17;;;;;;;5.70;3.80;;;;;;;9.10;53.77;93289.75;1905938;74;21234;-77
2021/04/23 09:20:46;;;;;;;9.05;4.83;;;;;;;9.35;55.07;93289.15;1802928;78;21550;-77
2021/04/23 09:23:20;;;;;;;5.62;3.77;;;;;;;9.49;53.93;93289.72;1835652;78;21120;-76
2021/04/23 09:25:55;;;;;;;8.58;4.20;;;;;;;9.45;48.12;93290.31;1894168;75;21644;-76
2021/04/23 09:28:39;;;;;;;10.53;4.45;;;;;;;9.15;47.26;93293.45;1846303;76;21185;-77
2021/04/23 09:31:25;;;;;;;9.68;4.72;;;;;;;8.89;51.12;93300.80;1857894;76;21091;-78
2021/04/23 09:33:58;;;;;;;6.70;3.75;;;;;;;8.66;51.76;93293.05;1861837;76;21501;-76
2021/04/23 09:36:44;;;;;;;7.87;4.60;;;;;;;8.39;53.07;93299.39;1871998;76;21169;-77
2021/04/23 09:39:16;;;;;;;11.90;4.40;;;;;;;8.23;53.85;93295.62;1834336;77;21145;-77
2021/04/23 09:41:52;;;;;;;6.33;3.80;;;;;;;8.15;51.88;93292.70;1826124;78;21820;-77
2021/04/23 09:44:36;;;;;;;6.92;4.45;;;;;;;8.18;52.27;93296.58;1837111;78;21062;-78
2021/04/23 09:47:07;;;;;;;7.72;4.10;;;;;;;8.23;54.12;93288.84;1829792;77;21437;-75
2021/04/23 09:49:34;;;;;;;6.45;3.90;;;;;;;8.33;50.75;93286.56;1860663;76;21189;-75
2021/04/23 09:52:05;;;;;;;9.30;3.95;;;;;;;8.40;53.36;93283.31;1862778;76;21671;-76
2021/04/23 09:54:34;;;;;;;6.60;4.40;;;;;;;8.54;54.85;93275.80;1838251;77;22557;-75
2021/04/23 09:57:02;;;;;;;7.25;4.22;;;;;;;8.74;55.40;93274.84;1845163;77;21125;-76
2021/04/23 09:59:30;;;;;;;8.60;4.62;;;;;;;8.88;50.82;93275.45;1794817;78;21012;-75
2021/04/23 10:02:04;;;;;;;5.62;3.40;;;;;;;8.92;53.52;93270.79;1819221;78;21134;-77
2021/04/23 10:04:36;;;;;;;6.15;3.05;;;;;;;8.98;52.87;93269.22;1839701;77;21087;-79
2021/04/23 10:07:16;;;;;;;7.62;3.77;;;;;;;9.00;53.28;93252.00;1877211;75;22171;-78
2021/04/23 10:10:09;;;;;;;5.20;3.33;;;;;;;9.01;52.13;93258.95;1846647;76;28127;-75
2021/04/23 10:12:54;;;;;;;6.50;3.58;;;;;;;8.90;52.09;93264.97;1814067;78;21642;-78
2021/04/23 10:15:29;;;;;;;7.23;3.97;;;;;;;8.85;52.24;93262.66;1766017;79;22221;-78
2021/04/23 10:18:07;;;;;;;6.97;4.45;;;;;;;8.82;52.00;93267.48;1827830;77;21218;-80
2021/04/23 10:20:38;;;;;;;5.42;3.45;;;;;;;8.68;50.58;93262.83;1850004;77;21506;-78
2021/04/23 10:23:07;;;;;;;8.03;4.40;;;;;;;8.45;51.51;93270.73;1850737;77;21118;-78
2021/04/23 10:25:34;;;;;;;11.28;5.15;;;;;;;8.30;50.47;93274.55;1850653;77;21326;-77
2021/04/23 10:28:05;;;;;;;9.85;5.22;;;;;;;8.12;52.22;93261.54;1825013;78;21197;-77
2021/04/23 10:30:38;;;;;;;8.13;3.95;;;;;;;7.98;52.32;93265.00;1848649;77;21002;-77
2021/04/23 10:33:14;;;;;;;6.72;3.30;;;;;;;7.87;53.63;93270.37;1831441;77;21745;-77
2021/04/23 10:35:44;;;;;;;6.83;4.20;;;;;;;7.74;54.29;93265.85;1805032;77;21051;-77
2021/04/23 10:38:20;;;;;;;5.28;3.47;;;;;;;7.64;54.58;93273.37;1858333;77;21091;-78
2021/04/23 10:41:00;;;;;;;10.20;3.90;;;;;;;7.51;52.70;93270.20;1857166;77;21358;-77
2021/04/23 10:43:30;;;;;;;6.60;3.62;;;;;;;7.41;53.60;93267.43;1858774;77;21129;-78
2021/04/23 10:46:12;;;;;;;5.25;3.50;;;;;;;7.34;53.40;93269.54;1803434;79;21168;-77
2021/04/23 10:48:41;;;;;;;8.23;3.33;;;;;;;7.34;51.69;93274.95;1832947;77;21174;-78
2021/04/23 10:51:21;;;;;;;8.05;3.30;;;;;;;7.31;50.83;93267.59;1844050;77;21147;-77
2021/04/23 10:53:51;;;;;;;5.55;3.50;;;;;;;7.30;50.71;93272.22;1840135;78;21854;-75
2021/04/23 10:56:30;;;;;;;7.03;4.10;;;;;;;7.25;50.21;93265.80;1843328;78;21099;-77
2021/04/23 10:59:05;;;;;;;7.30;3.62;;;;;;;7.24;52.70;93260.20;1838915;77;21281;-77
2021/04/23 11:01:38;;;;;;;8.45;4.42;;;;;;;7.33;51.32;93254.44;1839695;78;21126;-76
2021/04/23 11:04:13;;;;;;;6.05;3.65;;;;;;;7.30;52.26;93256.58;1838252;78;21035;-77
2021/04/23 11:07:03;;;;;;;9.50;3.60;;;;;;;7.09;53.34;93258.56;1837852;77;21364;-76
2021/04/23 11:09:32;;;;;;;9.55;6.03;;;;;;;6.91;53.80;93257.66;1814883;77;21741;-77
2021/04/23 11:12:13;;;;;;;7.60;4.90;;;;;;;6.73;53.76;93257.52;1797257;77;22165;-77
2021/04/23 11:14:43;;;;;;;7.62;3.77;;;;;;;6.59;54.64;93251.44;1839434;77;21157;-77
2021/04/23 11:17:25;;;;;;;10.00;4.50;;;;;;;6.56;54.76;93261.64;1831353;78;21172;-77
2021/04/23 11:19:53;;;;;;;6.45;4.12;;;;;;;6.50;55.18;93261.19;1799633;78;21436;-77
2021/04/23 11:22:29;;;;;;;8.58;5.50;;;;;;;6.39;55.97;93258.97;1840206;78;21130;-75
2021/04/23 11:25:16;;;;;;;7.72;4.35;;;;;;;6.32;55.96;93260.28;1805164;78;21109;-77
2021/04/23 11:28:06;;;;;;;8.50;4.35;;;;;;;6.28;55.18;93257.54;1832557;78;21560;-77
2021/04/23 11:31:03;;;;;;;6.60;3.95;;;;;;;6.26;55.03;93259.05;1807954;77;21782;-77
2021/04/23 11:33:54;;;;;;;5.95;3.42;;;;;;;6.19;57.16;93255.70;1827400;78;22215;-77
2021/04/23 11:36:34;;;;;;;5.75;3.67;;;;;;;6.21;58.37;93265.57;1839666;77;21186;-77
2021/04/23 11:39:08;;;;;;;7.95;4.35;;;;;;;6.24;58.01;93272.13;1839969;78;21111;-77
2021/04/23 11:41:38;;;;;;;9.33;4.72;;;;;;;6.23;56.62;93271.94;1839917;77;21103;-77
2021/04/23 11:44:43;;;;;;;8.55;4.58;;;;;;;6.15;57.95;93283.81;1840717;77;21545;-77
2021/04/23 11:47:16;;;;;;;7.53;3.80;;;;;;;5.99;59.01;93275.36;1840107;77;21687;-76
2021/04/23 11:49:44;;;;;;;6.72;4.25;;;;;;;5.78;59.95;93277.20;1815499;77;21182;-78
2021/04/23 11:52:12;;;;;;;8.25;4.05;;;;;;;5.63;59.37;93282.80;1842212;77;21345;-77
2021/04/23 11:54:43;;;;;;;5.83;3.67;;;;;;;5.46;59.98;93275.48;1840879;77;21479;-77
2021/04/23 11:57:12;;;;;;;11.38;4.10;;;;;;;5.38;61.21;93275.73;1838747;77;21151;-77